This is the latest recevied weather packets stored in our database for station/object AE5EW. If no packets are shown the sender has not sent any weather packets the latest 10 day(s).
| Time | Temp. | Humidity | Pressure | Rain* | Wind** | Luminosity | Snow |
|---|---|---|---|---|---|---|---|
| 1788022278 | 31.11° C | 68% | 1020.2 hPa | 0 mm | - | - | - |
| 1788021977 | 30.56° C | 68% | 1020.3 hPa | 0 mm | - | - | - |
| 1788021672 | 30.56° C | 70% | 1020.1 hPa | 0 mm | - | - | - |
| 1788021369 | 31.11° C | 72% | 1020.3 hPa | 0 mm | - | - | - |
| 1788021065 | 31.11° C | 71% | 1020.4 hPa | 0 mm | - | - | - |
| 1788020761 | 31.11° C | 71% | 1020.4 hPa | 0 mm | - | - | - |
| 1788020461 | 30° C | 74% | 1020.5 hPa | 0 mm | - | - | - |
| 1788020156 | 30° C | 76% | 1020.6 hPa | 0 mm | - | - | - |
| 1788019851 | 28.89° C | 79% | 1020.3 hPa | 0 mm | - | - | - |
| 1788019551 | 29.44° C | 78% | 1020.3 hPa | 0 mm | - | - | - |
| 1788019251 | 30° C | 77% | 1020.3 hPa | 0 mm | - | - | - |
| 1788018949 | 30° C | 77% | 1020.5 hPa | 0 mm | - | - | - |
| 1788018644 | 30° C | 75% | 1020.5 hPa | 0 mm | - | - | - |
| 1788018343 | 28.89° C | 81% | 1020.3 hPa | 0 mm | - | - | - |
| 1788018038 | 28.89° C | 81% | 1020.5 hPa | 0 mm | - | - | - |
| 1788017735 | 28.33° C | 80% | 1020.5 hPa | 0 mm | - | - | - |
| 1788017432 | 28.33° C | 83% | 1020.6 hPa | 0 mm | - | - | - |
| 1788017128 | 27.78° C | 82% | 1020.5 hPa | 0 mm | - | - | - |
| 1788016827 | 28.33° C | 81% | 1020.3 hPa | 0 mm | - | - | - |
| 1788016526 | 28.33° C | 82% | 1020.3 hPa | 0 mm | - | - | - |
| 1788016220 | 29.44° C | 79% | 1020.4 hPa | 0 mm | - | - | - |
| 1788015920 | 29.44° C | 81% | 1020.3 hPa | 0 mm | - | - | - |
| 1788015615 | 28.89° C | 83% | 1020.2 hPa | 0 mm | - | - | - |
| 1788015314 | 28.89° C | 80% | 1020.3 hPa | 0 mm | - | - | - |
| 1788015014 | 28.89° C | 83% | 1020.3 hPa | 0 mm | - | - | - |
* Rain latest hour (hover to see other rain measurements)
** Current wind speed in m/s (hover to see current wind gust speed)